Time;durP1;ratioP1;P1;durP2;ratioP2;P2;SDS_P1;SDS_P2;PMS_P1;PMS_P2;Temp;Humidity;BMP_temperature;BMP_pressure;BME280_temperature;BME280_humidity;BME280_pressure;Samples;Min_cycle;Max_cycle;Signal;HPM_P1;HPM_P2
2021/12/20 00:01:03;;;;;;;14.30;2.45;;;6.90;99.90;;;;;;5116812;28;20116;-73
2021/12/20 00:03:29;;;;;;;15.15;2.92;;;6.70;99.90;;;;;;5116421;28;20100;-73
2021/12/20 00:05:54;;;;;;;18.13;1.90;;;7.20;99.90;;;;;;5098956;28;20040;-73
2021/12/20 00:08:20;;;;;;;11.95;2.35;;;6.60;99.90;;;;;;5098950;28;20050;-73
2021/12/20 00:10:46;;;;;;;13.38;1.90;;;6.60;99.90;;;;;;5098366;28;20040;-73
2021/12/20 00:13:11;;;;;;;11.52;1.88;;;6.50;99.90;;;;;;5099137;28;20084;-73
2021/12/20 00:15:37;;;;;;;11.25;1.60;;;6.50;99.90;;;;;;5098281;28;20180;-73
2021/12/20 00:18:03;;;;;;;14.00;2.40;;;6.40;99.90;;;;;;5098273;28;20391;-73
2021/12/20 00:20:29;;;;;;;12.93;1.63;;;6.10;99.90;;;;;;5081057;28;20108;-73
2021/12/20 00:22:55;;;;;;;14.40;1.80;;;6.50;99.90;;;;;;5116199;28;20047;-73
2021/12/20 00:25:20;;;;;;;15.63;2.20;;;6.30;99.90;;;;;;5116834;28;20047;-73
2021/12/20 00:27:46;;;;;;;14.57;2.13;;;6.30;99.90;;;;;;5097983;28;20483;-73
2021/12/20 00:30:12;;;;;;;11.00;1.98;;;6.20;99.90;;;;;;5081462;28;20055;-73
2021/12/20 00:32:40;;;;;;;10.70;1.85;;;6.10;99.90;;;;;;5097945;28;20127;-73
2021/12/20 00:35:07;;;;;;;9.60;1.63;;;6.10;99.90;;;;;;5097978;28;20051;-72
2021/12/20 00:40:21;;;;;;;6.40;1.20;;;6.30;99.90;;;;;;5116026;28;20097;-72
2021/12/20 00:42:52;;;;;;;8.60;1.80;;;6.90;99.90;;;;;;5065446;28;20043;-72
2021/12/20 00:45:19;;;;;;;9.70;1.25;;;6.00;99.90;;;;;;5116195;28;20126;-73
2021/12/20 00:47:45;;;;;;;12.20;1.40;;;6.10;99.90;;;;;;5098638;28;20055;-72
2021/12/20 00:50:13;;;;;;;8.70;1.40;;;6.00;99.90;;;;;;5115830;28;20043;-72
2021/12/20 00:52:40;;;;;;;11.07;1.80;;;6.30;99.90;;;;;;5115720;28;20102;-72
2021/12/20 00:55:06;;;;;;;11.07;1.83;;;5.90;99.90;;;;;;5097893;28;20151;-72
2021/12/20 00:57:34;;;;;;;10.88;1.42;;;5.90;99.90;;;;;;5097573;28;20054;-72
2021/12/20 01:00:00;;;;;;;9.77;1.55;;;6.00;99.90;;;;;;5097310;28;20047;-72
2021/12/20 01:02:26;;;;;;;8.55;1.40;;;5.80;99.90;;;;;;5097942;28;20383;-72
2021/12/20 01:04:52;;;;;;;8.57;1.85;;;5.90;99.90;;;;;;5115333;28;20054;-72
2021/12/20 01:07:18;;;;;;;7.38;1.27;;;5.90;99.90;;;;;;5115769;28;20044;-72
2021/12/20 01:09:43;;;;;;;12.52;1.50;;;5.90;99.90;;;;;;5081327;28;20047;-72
2021/12/20 01:12:16;;;;;;;11.27;1.65;;;5.70;99.90;;;;;;5115301;28;20039;-72
2021/12/20 01:14:43;;;;;;;8.73;1.63;;;5.60;99.90;;;;;;5097579;28;20062;-72
2021/12/20 01:17:08;;;;;;;11.18;1.75;;;5.70;99.90;;;;;;5097245;28;20044;-72
2021/12/20 01:19:36;;;;;;;12.77;1.60;;;6.20;99.90;;;;;;5115122;28;20117;-72
2021/12/20 01:22:04;;;;;;;8.18;1.85;;;5.60;99.90;;;;;;5097385;28;20098;-72
2021/12/20 01:24:30;;;;;;;11.95;1.92;;;5.70;99.90;;;;;;5115069;28;20380;-72
2021/12/20 01:26:56;;;;;;;12.63;1.60;;;5.70;99.90;;;;;;5080205;28;20055;-72
2021/12/20 01:29:22;;;;;;;10.38;1.30;;;5.50;99.90;;;;;;5080997;28;20062;-72
2021/12/20 01:31:48;;;;;;;9.30;1.77;;;5.50;99.90;;;;;;5114929;28;20126;-72
2021/12/20 01:34:14;;;;;;;9.38;2.30;;;5.50;99.90;;;;;;5097120;28;20083;-72
2021/12/20 01:36:41;;;;;;;14.02;2.28;;;5.30;99.90;;;;;;5096986;28;20050;-72
2021/12/20 01:39:07;;;;;;;11.13;2.08;;;5.30;99.90;;;;;;5115636;28;20052;-72
2021/12/20 01:41:39;;;;;;;10.75;1.33;;;5.60;99.90;;;;;;5096852;28;20035;-72
2021/12/20 01:44:05;;;;;;;11.38;1.65;;;6.10;99.90;;;;;;5114757;28;20040;-72
2021/12/20 01:46:31;;;;;;;9.48;1.92;;;5.20;99.90;;;;;;5096823;28;20054;-72
2021/12/20 01:48:58;;;;;;;7.88;1.20;;;5.10;99.90;;;;;;5097508;28;20092;-72
2021/12/20 01:53:57;;;;;;;12.93;2.00;;;5.90;99.90;;;;;;5096905;28;20056;-72
2021/12/20 01:56:23;;;;;;;9.60;1.40;;;5.40;99.90;;;;;;5095996;28;20074;-72
2021/12/20 01:58:49;;;;;;;11.07;1.90;;;5.10;99.90;;;;;;5096477;28;20051;-72
2021/12/20 02:03:45;;;;;;;7.25;1.92;;;5.00;99.90;;;;;;5114350;28;20097;-72
2021/12/20 02:06:58;;;;;;;9.63;1.85;;;5.60;99.90;;;;;;5115036;28;20043;-72
2021/12/20 02:09:01;;;;;;;7.18;1.40;;;4.90;99.90;;;;;;5068748;28;20086;-72
2021/12/20 02:11:27;;;;;;;10.52;1.65;;;5.30;99.90;;;;;;5114336;28;20050;-72
2021/12/20 02:13:54;;;;;;;11.25;1.58;;;4.90;99.90;;;;;;5096197;28;20392;-72
2021/12/20 02:16:20;;;;;;;11.23;1.90;;;5.10;99.90;;;;;;5096587;28;20040;-72
2021/12/20 02:18:46;;;;;;;9.38;1.80;;;4.90;99.90;;;;;;5096078;28;20044;-72
2021/12/20 02:21:12;;;;;;;15.15;1.58;;;5.70;99.90;;;;;;5114274;28;20098;-72
2021/12/20 02:23:38;;;;;;;8.65;1.40;;;5.40;99.90;;;;;;5114672;28;20450;-72
2021/12/20 02:26:05;;;;;;;9.68;1.80;;;4.90;99.90;;;;;;5096010;28;20048;-72
2021/12/20 02:28:37;;;;;;;8.88;1.50;;;4.90;99.90;;;;;;5096001;28;20130;-72
2021/12/20 02:38:55;;;;;;;11.40;1.88;;;5.80;99.90;;;;;;5114588;28;20055;-72
2021/12/20 02:41:30;;;;;;;11.18;1.65;;;4.80;99.90;;;;;;5114041;28;20101;-72
2021/12/20 02:44:03;;;;;;;10.10;1.40;;;5.30;99.90;;;;;;5096980;28;20444;-72
2021/12/20 02:49:09;;;;;;;8.90;1.35;;;5.20;99.90;;;;;;5114594;28;20142;-72
2021/12/20 02:51:36;;;;;;;12.13;1.50;;;4.40;99.90;;;;;;5080031;28;20054;-72
2021/12/20 02:54:06;;;;;;;6.70;1.20;;;4.80;99.90;;;;;;5113842;28;20721;-71
2021/12/20 02:56:32;;;;;;;11.05;1.55;;;4.70;99.90;;;;;;5095752;28;20048;-72
2021/12/20 02:58:58;;;;;;;9.88;1.45;;;4.60;99.90;;;;;;5096205;28;20399;-72
2021/12/20 03:01:24;;;;;;;8.75;1.58;;;4.90;99.90;;;;;;5114301;28;20082;-72
2021/12/20 03:03:52;;;;;;;9.55;1.80;;;4.60;99.90;;;;;;5117618;28;20100;-72
2021/12/20 03:06:26;;;;;;;7.10;1.02;;;4.70;99.90;;;;;;5117718;28;20157;-72
2021/12/20 03:08:55;;;;;;;6.65;1.50;;;4.50;99.90;;;;;;5099777;28;20131;-72
2021/12/20 03:11:24;;;;;;;8.07;1.48;;;4.60;99.90;;;;;;5100016;28;20495;-72
2021/12/20 03:13:54;;;;;;;10.23;1.50;;;4.60;99.90;;;;;;5099924;28;20538;-72
2021/12/20 03:16:20;;;;;;;10.77;1.60;;;4.30;99.90;;;;;;5100532;28;20062;-72
2021/12/20 03:18:46;;;;;;;8.27;1.42;;;4.10;99.90;;;;;;5099138;28;20428;-72
2021/12/20 03:21:12;;;;;;;11.40;1.58;;;4.70;99.90;;;;;;5117199;28;20070;-72
2021/12/20 03:23:38;;;;;;;8.63;1.65;;;4.00;99.90;;;;;;5117389;28;20043;-71
2021/12/20 03:26:05;;;;;;;7.45;1.38;;;4.60;99.90;;;;;;5117967;28;20083;-72
2021/12/20 03:28:31;;;;;;;10.68;1.20;;;5.10;99.90;;;;;;5099304;28;20051;-72
2021/12/20 03:30:57;;;;;;;9.40;1.45;;;4.30;99.90;;;;;;5117918;28;20051;-72
2021/12/20 03:33:22;;;;;;;5.22;1.30;;;4.60;99.90;;;;;;5117192;28;20520;-72
2021/12/20 03:35:48;;;;;;;6.18;1.20;;;4.90;99.90;;;;;;5117738;28;20043;-72
2021/12/20 03:38:14;;;;;;;8.48;1.65;;;4.20;99.90;;;;;;5117151;28;20084;-72
2021/12/20 03:40:40;;;;;;;7.60;1.17;;;4.30;99.90;;;;;;5117136;28;20051;-72
2021/12/20 03:43:06;;;;;;;16.02;1.52;;;4.60;99.90;;;;;;5116999;28;20039;-72
2021/12/20 03:45:33;;;;;;;9.88;1.42;;;4.90;99.90;;;;;;5117032;28;20087;-72
2021/12/20 03:48:00;;;;;;;8.90;1.75;;;4.30;99.90;;;;;;5116995;28;20528;-71
2021/12/20 03:50:27;;;;;;;11.48;1.73;;;3.90;99.90;;;;;;5098800;28;20051;-72
2021/12/20 03:52:53;;;;;;;8.40;1.30;;;4.30;99.90;;;;;;5116951;28;20479;-72
2021/12/20 03:55:19;;;;;;;8.98;1.73;;;3.90;99.90;;;;;;5098690;28;20054;-72
2021/12/20 03:57:45;;;;;;;8.63;1.77;;;3.80;99.90;;;;;;5116773;28;20039;-72
2021/12/20 04:00:13;;;;;;;8.48;1.30;;;4.70;99.90;;;;;;5082015;28;20047;-72
2021/12/20 04:02:43;;;;;;;9.55;1.45;;;3.80;99.90;;;;;;5099367;28;20128;-72
2021/12/20 04:05:11;;;;;;;11.70;1.27;;;4.00;99.90;;;;;;5117194;28;20047;-72
2021/12/20 04:07:37;;;;;;;7.03;1.20;;;3.90;99.90;;;;;;5117477;28;20062;-71
2021/12/20 04:10:04;;;;;;;7.32;1.27;;;4.10;99.90;;;;;;5098515;28;20074;-72
2021/12/20 04:12:30;;;;;;;12.75;1.58;;;3.70;99.90;;;;;;5116505;28;20114;-72
2021/12/20 04:14:56;;;;;;;6.93;1.10;;;3.80;99.90;;;;;;5115718;28;20123;-72
2021/12/20 04:17:22;;;;;;;8.57;1.55;;;4.00;99.90;;;;;;5081649;28;20083;-72
2021/12/20 04:19:48;;;;;;;8.70;1.17;;;4.40;99.90;;;;;;5097925;28;20058;-71
2021/12/20 04:22:15;;;;;;;8.77;1.25;;;4.00;99.90;;;;;;5098097;28;20051;-72
2021/12/20 04:24:41;;;;;;;10.57;1.40;;;3.60;99.90;;;;;;5115982;28;20043;-71
2021/12/20 04:27:07;;;;;;;5.32;1.10;;;4.00;99.90;;;;;;5081471;28;20044;-72
2021/12/20 04:29:33;;;;;;;7.20;1.30;;;4.50;99.90;;;;;;5116159;28;20499;-71
2021/12/20 04:31:59;;;;;;;8.98;1.50;;;3.90;99.90;;;;;;5116119;28;20084;-72
2021/12/20 04:34:25;;;;;;;7.78;1.35;;;3.80;99.90;;;;;;5116531;28;20085;-71
2021/12/20 04:36:52;;;;;;;10.73;1.63;;;3.50;99.90;;;;;;5116071;28;20043;-72
2021/12/20 04:39:21;;;;;;;10.15;1.60;;;4.30;99.90;;;;;;5097851;28;20047;-71
2021/12/20 04:41:47;;;;;;;9.77;1.20;;;3.90;99.90;;;;;;5098324;28;20054;-72
2021/12/20 04:44:12;;;;;;;8.93;1.25;;;3.90;99.90;;;;;;5116087;28;20475;-71
2021/12/20 04:46:38;;;;;;;6.97;1.30;;;3.40;99.90;;;;;;5097688;28;20126;-72
2021/12/20 04:49:04;;;;;;;8.32;1.25;;;3.50;99.90;;;;;;5098701;28;20046;-72
2021/12/20 04:51:30;;;;;;;10.80;1.27;;;3.60;99.90;;;;;;5116035;28;20040;-72
2021/12/20 04:53:56;;;;;;;14.75;1.88;;;3.50;99.90;;;;;;5080914;28;20498;-72
2021/12/20 04:56:22;;;;;;;11.57;1.70;;;4.50;99.90;;;;;;5115641;28;20046;-72
2021/12/20 04:58:47;;;;;;;11.23;1.70;;;3.70;99.90;;;;;;5116402;28;20130;-73
2021/12/20 05:01:13;;;;;;;7.55;1.33;;;3.50;99.90;;;;;;5098343;28;20447;-72
2021/12/20 05:03:39;;;;;;;11.75;1.83;;;4.10;99.90;;;;;;5097193;28;20522;-71
2021/12/20 05:06:04;;;;;;;12.73;1.45;;;3.20;99.90;;;;;;5115168;28;20052;-70
2021/12/20 05:08:36;;;;;;;9.40;1.67;;;3.70;99.90;;;;;;5115441;28;20043;-70
2021/12/20 05:11:05;;;;;;;13.48;1.75;;;3.20;99.90;;;;;;5115127;28;20528;-70
2021/12/20 05:13:32;;;;;;;6.05;1.40;;;3.50;99.90;;;;;;5115322;28;20064;-70
2021/12/20 05:15:58;;;;;;;13.60;1.90;;;4.40;99.90;;;;;;5115299;28;20043;-70
2021/12/20 05:18:24;;;;;;;9.38;1.65;;;3.90;99.90;;;;;;5079937;28;20506;-71
2021/12/20 05:20:49;;;;;;;8.00;1.70;;;4.30;99.90;;;;;;5097286;28;20130;-71
2021/12/20 05:23:15;;;;;;;9.35;1.60;;;4.00;99.90;;;;;;5115082;28;20036;-71
2021/12/20 05:25:41;;;;;;;10.15;1.60;;;3.70;99.90;;;;;;5079811;28;20069;-71
2021/12/20 05:28:08;;;;;;;11.60;1.95;;;3.10;99.90;;;;;;5096913;28;20479;-71
2021/12/20 05:30:35;;;;;;;7.55;1.60;;;3.70;99.90;;;;;;5096510;28;20104;-71
2021/12/20 05:33:01;;;;;;;8.80;1.80;;;4.00;99.90;;;;;;5114992;28;20141;-70
2021/12/20 05:35:27;;;;;;;7.45;1.48;;;3.00;99.90;;;;;;5115613;28;20096;-71
2021/12/20 05:37:53;;;;;;;9.63;1.35;;;2.90;99.90;;;;;;5096701;28;20130;-71
2021/12/20 05:40:20;;;;;;;9.02;1.85;;;3.70;99.90;;;;;;5114806;28;20487;-71
2021/12/20 05:42:46;;;;;;;10.02;1.75;;;3.70;99.90;;;;;;5114378;28;20487;-71
2021/12/20 05:45:13;;;;;;;11.43;1.58;;;3.00;99.90;;;;;;5114727;28;20083;-71
2021/12/20 05:47:39;;;;;;;10.40;2.20;;;2.80;99.90;;;;;;5079828;28;20126;-71
2021/12/20 05:50:07;;;;;;;12.25;1.52;;;2.80;99.90;;;;;;5114327;28;20135;-71
2021/12/20 05:52:32;;;;;;;12.65;1.73;;;2.90;99.90;;;;;;5115227;28;20043;-71
2021/12/20 05:54:58;;;;;;;14.63;2.05;;;2.90;99.90;;;;;;5114554;28;20047;-71
2021/12/20 05:57:24;;;;;;;10.50;1.73;;;2.80;99.90;;;;;;5114559;28;20067;-71
2021/12/20 05:59:50;;;;;;;10.45;1.52;;;3.00;99.90;;;;;;5114459;28;20043;-71
2021/12/20 06:02:15;;;;;;;8.27;1.60;;;3.60;99.90;;;;;;5096930;28;20088;-71
2021/12/20 06:04:41;;;;;;;12.85;1.80;;;3.40;99.90;;;;;;5114411;28;20043;-71
2021/12/20 06:07:08;;;;;;;12.18;2.58;;;2.70;99.90;;;;;;5079535;28;20177;-71
2021/12/20 06:09:35;;;;;;;9.38;1.70;;;2.70;99.90;;;;;;5096453;28;20056;-71
2021/12/20 06:12:01;;;;;;;8.55;1.35;;;3.00;99.90;;;;;;5114324;28;20051;-71
2021/12/20 06:14:27;;;;;;;8.90;1.10;;;2.60;99.90;;;;;;5097146;28;20043;-71
2021/12/20 06:16:55;;;;;;;8.98;1.60;;;3.30;99.90;;;;;;5114256;28;20126;-71
2021/12/20 06:19:24;;;;;;;8.25;1.35;;;2.60;99.90;;;;;;5114201;28;20055;-71
2021/12/20 06:21:51;;;;;;;8.45;1.48;;;3.20;99.90;;;;;;5113880;28;20483;-71
2021/12/20 06:24:17;;;;;;;8.02;1.60;;;2.60;99.90;;;;;;5114082;28;20043;-70
2021/12/20 06:26:42;;;;;;;6.10;2.05;;;3.10;99.90;;;;;;5114133;28;20040;-71
2021/12/20 06:29:08;;;;;;;12.77;1.92;;;2.70;99.90;;;;;;5114155;28;20120;-71
2021/12/20 06:31:34;;;;;;;9.32;1.67;;;2.70;99.90;;;;;;5096070;28;20044;-71
2021/12/20 06:33:59;;;;;;;10.05;2.10;;;3.20;99.90;;;;;;5096253;28;20047;-71
2021/12/20 06:36:26;;;;;;;14.48;2.95;;;2.60;99.90;;;;;;5096442;28;20055;-71
2021/12/20 06:38:54;;;;;;;13.70;4.10;;;2.50;99.90;;;;;;5118350;28;20490;-72
2021/12/20 06:41:20;;;;;;;11.43;5.20;;;2.90;99.90;;;;;;5118889;28;20055;-71
2021/12/20 06:43:47;;;;;;;18.98;6.03;;;3.40;99.90;;;;;;5099983;28;20051;-72
2021/12/20 06:46:14;;;;;;;16.88;6.78;;;2.40;99.90;;;;;;5100897;28;20069;-72
2021/12/20 06:48:39;;;;;;;20.15;7.05;;;2.60;99.90;;;;;;5118111;28;20040;-71
2021/12/20 06:51:05;;;;;;;14.85;6.97;;;3.30;99.90;;;;;;5118081;28;20047;-71
2021/12/20 06:53:31;;;;;;;16.55;6.40;;;2.40;99.90;;;;;;5119037;28;20043;-72
2021/12/20 06:55:57;;;;;;;17.63;5.43;;;2.20;99.90;;;;;;5100306;28;20040;-71
2021/12/20 06:58:23;;;;;;;13.60;5.55;;;3.00;99.90;;;;;;5117997;28;20127;-72
2021/12/20 07:00:53;;;;;;;12.00;4.53;;;2.60;99.90;;;;;;5117951;28;20087;-72
2021/12/20 07:03:20;;;;;;;13.90;3.60;;;2.60;99.90;;;;;;5099974;28;20100;-72
2021/12/20 07:05:46;;;;;;;14.18;3.30;;;3.80;99.90;;;;;;5117699;28;20047;-72
2021/12/20 07:08:11;;;;;;;11.80;3.00;;;2.50;99.90;;;;;;5117766;28;20039;-72
2021/12/20 07:10:37;;;;;;;11.10;3.38;;;3.00;99.90;;;;;;5117779;28;20043;-72
2021/12/20 07:13:03;;;;;;;11.93;3.55;;;2.10;99.90;;;;;;5100534;28;20062;-72
2021/12/20 07:15:31;;;;;;;10.93;3.28;;;2.60;99.90;;;;;;5099417;28;20044;-72
2021/12/20 07:17:58;;;;;;;13.52;3.20;;;2.30;99.90;;;;;;5117589;28;20556;-72
2021/12/20 07:20:24;;;;;;;12.93;3.45;;;3.00;99.90;;;;;;5099362;28;20055;-72
2021/12/20 07:22:50;;;;;;;16.80;3.03;;;2.30;99.90;;;;;;5117136;28;20138;-72
2021/12/20 07:25:19;;;;;;;16.35;4.15;;;2.20;99.90;;;;;;5117448;28;20123;-72
2021/12/20 07:27:51;;;;;;;13.45;3.38;;;3.20;99.90;;;;;;5117413;28;20039;-72
2021/12/20 07:30:17;;;;;;;8.05;2.83;;;2.20;99.90;;;;;;5100275;28;20081;-72
2021/12/20 07:32:43;;;;;;;8.00;2.72;;;2.70;99.90;;;;;;5099096;28;20040;-72
2021/12/20 07:35:10;;;;;;;12.73;3.35;;;2.60;99.90;;;;;;5117921;28;20046;-72
2021/12/20 07:37:36;;;;;;;13.13;3.00;;;2.10;99.90;;;;;;5117225;28;20062;-72
2021/12/20 07:40:04;;;;;;;11.95;2.95;;;2.30;99.90;;;;;;5117120;28;20059;-72
2021/12/20 07:42:30;;;;;;;10.82;2.80;;;2.00;99.90;;;;;;5116998;28;20134;-72
2021/12/20 07:44:56;;;;;;;10.95;2.78;;;2.10;99.90;;;;;;5117008;28;20123;-72
2021/12/20 07:47:22;;;;;;;8.65;2.60;;;3.50;99.90;;;;;;5116632;28;20130;-72
2021/12/20 07:49:47;;;;;;;12.95;3.42;;;2.20;99.90;;;;;;5117017;28;20174;-72
2021/12/20 07:52:13;;;;;;;12.40;2.88;;;2.10;99.90;;;;;;5117046;28;20476;-72
2021/12/20 07:54:38;;;;;;;17.23;3.40;;;2.90;99.90;;;;;;5116823;28;20122;-72
2021/12/20 07:57:04;;;;;;;8.85;3.08;;;2.00;99.90;;;;;;5117371;28;20515;-72
2021/12/20 07:59:30;;;;;;;10.88;3.78;;;2.10;99.90;;;;;;5117391;28;20051;-72
2021/12/20 08:01:56;;;;;;;11.48;3.97;;;2.30;99.90;;;;;;5116650;28;20073;-72
2021/12/20 08:04:22;;;;;;;10.27;3.08;;;2.20;99.90;;;;;;5098610;28;20361;-72
2021/12/20 08:06:48;;;;;;;11.63;3.33;;;3.30;99.90;;;;;;5117210;28;20052;-72
2021/12/20 08:09:14;;;;;;;10.25;3.15;;;2.20;99.90;;;;;;5081745;28;20069;-72
2021/12/20 08:11:41;;;;;;;12.95;3.45;;;2.10;99.90;;;;;;5098433;28;20040;-72
2021/12/20 08:14:07;;;;;;;10.90;3.83;;;2.10;99.90;;;;;;5098233;28;20487;-72
2021/12/20 08:16:33;;;;;;;15.13;4.47;;;2.10;99.90;;;;;;5117225;28;20108;-72
2021/12/20 08:18:59;;;;;;;13.02;4.50;;;2.00;99.90;;;;;;5116192;28;20499;-72
2021/12/20 08:21:24;;;;;;;15.60;5.05;;;2.00;99.90;;;;;;5098605;28;20097;-73
2021/12/20 08:23:50;;;;;;;14.85;5.55;;;2.10;99.90;;;;;;5097898;28;20126;-72
2021/12/20 08:26:17;;;;;;;12.55;3.88;;;2.30;99.90;;;;;;5116109;28;20079;-72
2021/12/20 08:28:42;;;;;;;15.63;4.85;;;2.10;99.90;;;;;;5116786;28;20118;-72
2021/12/20 08:31:09;;;;;;;13.68;3.67;;;2.20;99.90;;;;;;5116248;28;20127;-72
2021/12/20 08:33:36;;;;;;;7.95;3.63;;;2.50;99.90;;;;;;5116124;28;20083;-73
2021/12/20 08:36:04;;;;;;;12.20;4.03;;;1.30;99.90;;;;;;5098015;28;20648;-73
2021/12/20 08:38:30;;;;;;;14.23;3.00;;;2.20;99.90;;;;;;5097850;28;20082;-73
2021/12/20 08:40:56;;;;;;;16.08;3.78;;;2.40;99.90;;;;;;5115942;28;20050;-73
2021/12/20 08:43:22;;;;;;;29.00;4.75;;;2.60;99.90;;;;;;5080907;28;20407;-73
2021/12/20 08:45:48;;;;;;;30.35;3.85;;;2.00;99.90;;;;;;5097604;28;20047;-73
2021/12/20 08:48:14;;;;;;;26.02;3.50;;;2.30;99.90;;;;;;5115795;28;20051;-74
2021/12/20 08:50:40;;;;;;;43.30;4.45;;;2.10;99.90;;;;;;5115817;28;20039;-74
2021/12/20 08:53:07;;;;;;;31.83;4.03;;;3.40;99.90;;;;;;5115750;28;20087;-74
2021/12/20 08:55:33;;;;;;;35.40;5.25;;;2.20;99.90;;;;;;5115356;28;20564;-73
2021/12/20 08:57:59;;;;;;;46.55;4.18;;;2.20;99.90;;;;;;5116119;28;20051;-75
2021/12/20 09:00:29;;;;;;;20.20;3.40;;;2.80;99.90;;;;;;5115136;28;20364;-74
2021/12/20 09:02:55;;;;;;;18.52;3.55;;;2.40;99.90;;;;;;5080089;28;20048;-75
2021/12/20 09:05:22;;;;;;;22.52;5.30;;;2.20;99.90;;;;;;5097231;28;20084;-73
2021/12/20 09:07:48;;;;;;;19.58;4.95;;;2.10;99.90;;;;;;5097494;28;20058;-75
2021/12/20 09:10:15;;;;;;;18.38;5.72;;;2.20;99.90;;;;;;5080837;28;20043;-73
2021/12/20 09:12:42;;;;;;;23.00;5.50;;;2.40;99.90;;;;;;5097301;28;20035;-75
2021/12/20 09:15:12;;;;;;;19.17;3.75;;;3.10;99.90;;;;;;5115318;28;20095;-72
2021/12/20 09:17:37;;;;;;;14.30;2.58;;;2.30;99.90;;;;;;5098156;28;20044;-71
2021/12/20 09:20:05;;;;;;;19.40;3.08;;;2.80;99.90;;;;;;5115264;28;20059;-72
2021/12/20 09:22:38;;;;;;;12.18;2.38;;;2.40;99.90;;;;;;5115390;28;20035;-72
2021/12/20 09:25:05;;;;;;;10.82;2.03;;;3.60;99.90;;;;;;5096937;28;20048;-72
2021/12/20 09:27:32;;;;;;;4.32;1.50;;;2.40;99.90;;;;;;5115019;28;20047;-72
2021/12/20 09:29:57;;;;;;;5.63;1.90;;;3.30;99.90;;;;;;5115795;28;20044;-73
2021/12/20 09:32:23;;;;;;;3.13;1.30;;;2.40;99.90;;;;;;5115240;28;20486;-72
2021/12/20 09:34:48;;;;;;;2.53;1.10;;;2.50;99.90;;;;;;5097707;28;20444;-72
2021/12/20 09:37:14;;;;;;;3.17;1.33;;;2.50;99.90;;;;;;5115418;28;20105;-72
2021/12/20 09:39:42;;;;;;;4.00;1.50;;;3.40;99.90;;;;;;5115369;28;20050;-73
2021/12/20 09:42:10;;;;;;;4.45;1.67;;;2.90;99.90;;;;;;5115212;28;20056;-72
2021/12/20 09:44:36;;;;;;;2.97;2.10;;;3.10;99.90;;;;;;5114710;28;20105;-72
2021/12/20 09:47:03;;;;;;;4.40;1.80;;;2.80;99.90;;;;;;5115176;28;20387;-72
2021/12/20 09:49:30;;;;;;;4.53;2.05;;;2.90;99.90;;;;;;5114686;28;20052;-72
2021/12/20 09:51:58;;;;;;;6.05;1.90;;;3.30;99.90;;;;;;5096462;28;20048;-72
2021/12/20 09:54:25;;;;;;;6.35;2.22;;;2.80;99.90;;;;;;5114516;28;20043;-72
2021/12/20 09:56:53;;;;;;;4.20;2.03;;;3.00;99.90;;;;;;5114329;28;20051;-71
2021/12/20 09:59:20;;;;;;;7.05;2.08;;;3.20;99.90;;;;;;5113371;28;20061;-73
2021/12/20 10:01:48;;;;;;;5.75;1.67;;;3.50;99.90;;;;;;5111063;28;20478;-72
2021/12/20 10:04:15;;;;;;;5.88;1.95;;;3.00;99.90;;;;;;5111080;28;20044;-72
2021/12/20 10:06:42;;;;;;;3.88;1.77;;;3.30;99.90;;;;;;5093052;28;20051;-72
2021/12/20 10:09:13;;;;;;;3.80;1.42;;;3.10;99.90;;;;;;5111530;28;20432;-74
2021/12/20 10:11:40;;;;;;;5.78;2.20;;;3.00;99.90;;;;;;5093262;28;20100;-72
2021/12/20 10:14:08;;;;;;;7.90;2.10;;;3.30;99.90;;;;;;5110669;28;20047;-72
2021/12/20 10:16:37;;;;;;;6.57;2.33;;;4.20;99.90;;;;;;5111451;28;20395;-72
2021/12/20 10:19:04;;;;;;;6.05;2.00;;;3.60;99.90;;;;;;5110859;28;20138;-72
2021/12/20 10:21:39;;;;;;;6.13;2.05;;;2.60;99.90;;;;;;5092345;28;20059;-74
2021/12/20 10:24:05;;;;;;;7.05;2.17;;;4.60;99.90;;;;;;5110666;28;20032;-72
2021/12/20 10:26:41;;;;;;;8.30;1.88;;;3.50;99.90;;;;;;5092137;28;20097;-72
2021/12/20 10:29:21;;;;;;;5.47;2.05;;;3.50;99.90;;;;;;5092609;28;20452;-72
2021/12/20 10:31:48;;;;;;;5.70;1.90;;;3.60;99.90;;;;;;5093033;28;20414;-74
2021/12/20 10:34:18;;;;;;;7.78;2.25;;;4.80;99.90;;;;;;5110587;28;20039;-73
2021/12/20 10:36:55;;;;;;;8.18;2.63;;;4.20;99.90;;;;;;5092097;28;20096;-73
2021/12/20 10:39:37;;;;;;;6.20;2.03;;;4.90;99.90;;;;;;5092543;28;20394;-72
2021/12/20 10:42:39;;;;;;;7.85;1.88;;;4.10;99.90;;;;;;5110827;28;20563;-73
2021/12/20 10:45:09;;;;;;;7.60;3.30;;;4.50;99.90;;;;;;5096035;28;20081;-72
2021/12/20 10:47:35;;;;;;;3.90;2.33;;;4.00;99.90;;;;;;5110789;28;20488;-72
2021/12/20 10:50:23;;;;;;;5.50;2.50;;;5.00;99.90;;;;;;5091925;28;20048;-72
2021/12/20 10:52:50;;;;;;;7.05;2.50;;;4.10;99.90;;;;;;5110974;28;20039;-72
2021/12/20 10:55:35;;;;;;;5.53;2.60;;;4.70;99.90;;;;;;5110880;28;20047;-73
2021/12/20 10:58:19;;;;;;;8.40;2.55;;;6.30;99.90;;;;;;5109917;28;20047;-72
2021/12/20 11:01:00;;;;;;;11.27;2.30;;;4.30;99.90;;;;;;5110485;28;20043;-72
2021/12/20 11:03:27;;;;;;;15.30;2.22;;;4.40;99.90;;;;;;5111424;28;20066;-71
2021/12/20 11:06:14;;;;;;;7.97;2.25;;;4.40;99.90;;;;;;5093029;28;20545;-70
2021/12/20 11:11:25;;;;;;;5.32;1.23;;;4.70;99.90;;;;;;5093355;28;20093;-72
2021/12/20 11:13:51;;;;;;;6.85;1.48;;;5.00;99.90;;;;;;5092484;28;20105;-72
2021/12/20 11:16:27;;;;;;;9.75;1.50;;;4.60;99.90;;;;;;5092154;28;20396;-73
2021/12/20 11:19:38;;;;;;;7.22;1.70;;;5.10;99.90;;;;;;5075987;28;20055;-72
2021/12/20 11:22:14;;;;;;;4.90;2.28;;;4.70;99.90;;;;;;5027450;28;20050;-71
2021/12/20 11:24:52;;;;;;;7.10;2.83;;;5.30;99.90;;;;;;5030893;28;20049;-73
2021/12/20 11:27:53;;;;;;;6.47;2.35;;;3.50;99.90;;;;;;5051672;28;20083;-72
2021/12/20 11:30:26;;;;;;;7.03;2.38;;;4.70;99.90;;;;;;5015254;28;20404;-73
2021/12/20 11:32:52;;;;;;;4.05;1.45;;;4.90;99.90;;;;;;5100816;28;20051;-72
2021/12/20 11:35:21;;;;;;;8.38;1.90;;;5.60;99.90;;;;;;5096249;28;20082;-73
2021/12/20 11:37:48;;;;;;;8.48;2.08;;;5.00;99.90;;;;;;5096462;28;20077;-73
2021/12/20 11:40:16;;;;;;;8.85;2.17;;;5.80;99.90;;;;;;5113472;28;20467;-74
2021/12/20 11:42:42;;;;;;;7.80;1.65;;;5.20;99.90;;;;;;5113285;28;20035;-73
2021/12/20 11:45:10;;;;;;;5.07;1.70;;;6.60;99.90;;;;;;5114490;28;20076;-73
2021/12/20 11:48:11;;;;;;;5.53;1.52;;;5.30;99.90;;;;;;5113969;28;20075;-74
2021/12/20 11:50:41;;;;;;;4.63;1.40;;;5.10;99.90;;;;;;5095877;28;20050;-72
2021/12/20 11:53:13;;;;;;;5.68;1.48;;;5.50;99.90;;;;;;5113653;28;20036;-72
2021/12/20 11:55:51;;;;;;;4.60;1.75;;;5.50;99.90;;;;;;5113238;28;20554;-72
2021/12/20 11:58:24;;;;;;;6.53;1.85;;;5.10;99.90;;;;;;5095485;28;20101;-72
2021/12/20 12:00:51;;;;;;;11.00;2.35;;;5.10;99.90;;;;;;5114689;28;20048;-73
2021/12/20 12:03:19;;;;;;;8.10;2.60;;;5.60;99.90;;;;;;5112953;28;20032;-72
2021/12/20 12:05:57;;;;;;;9.43;2.40;;;5.50;99.90;;;;;;5113277;28;20392;-72
2021/12/20 12:08:38;;;;;;;10.18;2.03;;;5.50;99.90;;;;;;5078587;28;20483;-72
2021/12/20 12:11:06;;;;;;;9.02;1.67;;;5.30;99.90;;;;;;5113425;28;20051;-71
2021/12/20 12:13:50;;;;;;;7.70;1.75;;;5.60;99.90;;;;;;5095002;28;20043;-70
2021/12/20 12:16:29;;;;;;;10.57;2.28;;;5.40;99.90;;;;;;5078581;28;20092;-73
2021/12/20 12:18:57;;;;;;;10.00;2.30;;;5.50;99.90;;;;;;5094927;28;20050;-73
2021/12/20 12:21:38;;;;;;;6.07;1.75;;;6.00;99.90;;;;;;5094901;28;20066;-71
2021/12/20 12:24:09;;;;;;;7.72;1.90;;;6.20;99.90;;;;;;5113802;28;20052;-73
2021/12/20 12:26:41;;;;;;;6.20;1.88;;;5.40;99.90;;;;;;5078883;28;20134;-71
2021/12/20 12:29:21;;;;;;;8.77;1.73;;;5.40;99.90;;;;;;5113693;28;20097;-72
2021/12/20 12:31:56;;;;;;;7.22;1.55;;;5.60;99.90;;;;;;5112948;28;20096;-73
2021/12/20 12:34:45;;;;;;;5.88;1.33;;;5.50;99.90;;;;;;5111452;28;20479;-72
2021/12/20 12:37:37;;;;;;;7.38;1.70;;;5.60;99.90;;;;;;5113539;28;20040;-72
2021/12/20 12:40:24;;;;;;;5.47;1.40;;;5.60;99.90;;;;;;5113322;28;20040;-73
2021/12/20 12:42:55;;;;;;;10.70;1.63;;;5.50;99.90;;;;;;5094582;28;20086;-72
2021/12/20 12:45:54;;;;;;;6.65;1.50;;;5.50;99.90;;;;;;5114032;28;20483;-71
2021/12/20 12:48:47;;;;;;;5.15;2.00;;;5.50;99.90;;;;;;5092202;28;20048;-71
2021/12/20 12:51:18;;;;;;;6.80;1.55;;;5.50;99.90;;;;;;5115605;28;20539;-71
2021/12/20 12:53:55;;;;;;;5.68;1.83;;;5.80;99.90;;;;;;5115119;28;20047;-72
2021/12/20 12:56:24;;;;;;;6.38;1.73;;;5.70;99.90;;;;;;5097606;28;20114;-71
2021/12/20 12:59:12;;;;;;;7.47;2.55;;;6.20;99.90;;;;;;5097470;28;20047;-72
2021/12/20 13:01:41;;;;;;;4.80;1.52;;;5.50;99.90;;;;;;5115471;28;20039;-71
2021/12/20 13:04:07;;;;;;;5.47;1.60;;;6.80;99.90;;;;;;5097386;28;20138;-71
2021/12/20 13:06:33;;;;;;;5.53;1.90;;;5.50;99.90;;;;;;5115397;28;20482;-71
2021/12/20 13:09:00;;;;;;;5.82;1.50;;;5.70;99.90;;;;;;5097084;28;20104;-71
2021/12/20 13:11:28;;;;;;;8.90;2.30;;;5.60;99.90;;;;;;5097321;28;20490;-71
2021/12/20 13:14:29;;;;;;;5.45;1.85;;;5.80;99.90;;;;;;5115887;28;20043;-71
2021/12/20 13:17:01;;;;;;;5.55;1.85;;;5.50;99.90;;;;;;5101152;28;20634;-71
2021/12/20 13:19:34;;;;;;;9.82;2.22;;;6.40;99.90;;;;;;5081541;28;20413;-71
2021/12/20 13:22:03;;;;;;;6.22;1.70;;;5.60;99.90;;;;;;5115528;28;20091;-71